WetterOnline ( https://www.wetteronline.de )

Wetter aktuell Groß Lindow

Aktuelles Wetter: Lindenberg b. Beeskow (104m)

6-stündlich | Neueste Meldungen
Ortszeit Temperatur Wetter
Sa, 18.05. 20:00 15.6° C bewölkt
Sa, 18.05. 14:00 17.5° C bedeckt
Sa, 18.05. 8:00 14.5° C leicht bewölkt
Sa, 18.05. 2:00 14.9° C bewölkt
Fr, 17.05. 20:00 19.3° C bedeckt
Fr, 17.05. 14:00 23.3° C wolkenlos
Fr, 17.05. 8:00 15.9° C leicht bewölkt
Fr, 17.05. 2:00 15.8° C wolkig
Ortszeit Temperatur Wetter
So, 19.05. 0:30 14.0° C bewölkt
So, 19.05. 0:20 14.0° C bewölkt
So, 19.05. 0:10 14.0° C bedeckt
So, 19.05. 0:00 14.1° C wolkig
Sa, 18.05. 23:50 14.1° C wolkig
Sa, 18.05. 23:40 14.3° C bedeckt
Sa, 18.05. 23:30 14.2° C bedeckt
Sa, 18.05. 23:00 14.7° C bedeckt
Sa, 18.05. 22:30 15.0° C bewölkt
Sa, 18.05. 22:00 15.3° C bedeckt
Sa, 18.05. 21:30 14.8° C bedeckt
Ortszeit Relative Feuchte Sichtweite
Sa, 18.05. 20:00 78% >70 km
Sa, 18.05. 14:00 57% 50 km
Sa, 18.05. 8:00 69% 50 km
Sa, 18.05. 2:00 60% 60 km
Fr, 17.05. 20:00 44% >70 km
Fr, 17.05. 14:00 25% 50 km
Fr, 17.05. 8:00 46% 65 km
Fr, 17.05. 2:00 52% 65 km
Ortszeit Relative Feuchte Sichtweite
So, 19.05. 0:30 85% 50 km
So, 19.05. 0:20 85% -
So, 19.05. 0:10 85% -
So, 19.05. 0:00 85% >70 km
Sa, 18.05. 23:50 85% -
Sa, 18.05. 23:40 84% -
Sa, 18.05. 23:30 85% >70 km
Sa, 18.05. 23:00 82% >70 km
Sa, 18.05. 22:30 79% >70 km
Sa, 18.05. 22:00 78% >70 km
Sa, 18.05. 21:30 82% >70 km
Ortszeit Niederschlagsmenge Niederschlagsart
Sa, 18.05. 20:00 0.2 l/m2 in 12 Std. Regen
Sa, 18.05. 14:00 0.0 l/m2 in 6 Std. -
Sa, 18.05. 8:00 0.0 l/m2 in 12 Std. -
Sa, 18.05. 2:00 0.0 l/m2 in 6 Std. -
Fr, 17.05. 20:00 0.0 l/m2 in 12 Std. -
Fr, 17.05. 14:00 0.0 l/m2 in 6 Std. -
Fr, 17.05. 8:00 0.0 l/m2 in 12 Std. -
Fr, 17.05. 2:00 0.0 l/m2 in 6 Std. -
Ortszeit Niederschlagsmenge Niederschlagsart
So, 19.05. 0:30 0.0 l/m2 in 30 Min -
So, 19.05. 0:20 keine Meldung -
So, 19.05. 0:10 keine Meldung -
So, 19.05. 0:00 0.0 l/m2 in 1 Std. -
Sa, 18.05. 23:50 keine Meldung -
Sa, 18.05. 23:40 keine Meldung -
Sa, 18.05. 23:30 0.0 l/m2 in 30 Min -
Sa, 18.05. 23:00 0.0 l/m2 in 1 Std. Sprühregen
Sa, 18.05. 22:30 0.0 l/m2 in 30 Min -
Sa, 18.05. 22:00 <0.05 l/m2 in 1 Std. -
Sa, 18.05. 21:30 0.0 l/m2 in 30 Min -
Ortszeit Stärke Spitze Richtung
km/h Bft. km/h Grad Sektor
Sa, 18.05. 20:00 7 2 29 100° O
Sa, 18.05. 14:00 13 3 30 120° SO
Sa, 18.05. 8:00 13 3 24 110° O
Sa, 18.05. 2:00 14 3 32 110° O
Fr, 17.05. 20:00 7 2 50 170° S
Fr, 17.05. 14:00 25 4 47 110° O
Fr, 17.05. 8:00 15 3 33 100° O
Fr, 17.05. 2:00 14 3 32 90° O
Ortszeit Stärke Spitze Richtung
km/h Bft. km/h Grad Sektor
So, 19.05. 0:30 9 2 13 90° O
So, 19.05. 0:20 9 2 - 90° O
So, 19.05. 0:10 7 2 - 100° O
So, 19.05. 0:00 7 2 11 100° O
Sa, 18.05. 23:50 7 2 - 100° O
Sa, 18.05. 23:40 7 2 - 90° O
Sa, 18.05. 23:30 6 1 7 110° O
Sa, 18.05. 23:00 6 1 15 120° SO
Sa, 18.05. 22:30 7 2 14 120° SO
Sa, 18.05. 22:00 7 2 14 120° SO
Sa, 18.05. 21:30 6 1 7 110° O
Ortszeit Untergrenze Bedeckung Gattung
total tief tief mittel hoch
Sa, 18.05. 20:00 1500 m 7/8 7/8 - - -
Sa, 18.05. 14:00 1290 m 8/8 8/8 - - -
Sa, 18.05. 8:00 2400 m 4/8 4/8 - - -
Sa, 18.05. 2:00 2400 m 7/8 7/8 - - -
Fr, 17.05. 20:00 3600 m 8/8 8/8 - - -
Fr, 17.05. 14:00 - 0/8 0/8 - - -
Fr, 17.05. 8:00 6600 m 8/8 1/8 - - -
Fr, 17.05. 2:00 7500 m 7/8 0/8 - - -
Ortszeit Bedeckungsgrad in Achtel und Wolkenuntergrenze
So, 19.05. 0:30 5(2100m) 7(3300m) 8(3900m)
So, 19.05. 0:20 5(2100m) 7(3300m) 8(3900m)
So, 19.05. 0:10 8
So, 19.05. 0:00 1(1140m) 8(3300m) 8(3900m)
Sa, 18.05. 23:50 1(1140m) 8(3300m) 8(3900m)
Sa, 18.05. 23:40 8
Sa, 18.05. 23:30 2(1140m) 8(2400m) 8(3000m)
Sa, 18.05. 23:00 1(2100m) 8(2400m)
Sa, 18.05. 22:30 4(1500m) 7(2400m)
Sa, 18.05. 22:00 2(1290m) 8(2400m)
Sa, 18.05. 21:30 8(2100m) 8(2400m)
Ortszeit Luftdruck NN (hPa) Tendenz (hPa in 3 Std.)
Sa, 18.05. 20:00 1010 - 0,4
Sa, 18.05. 14:00 1011 + 0,4
Sa, 18.05. 8:00 1011 + 0,2
Sa, 18.05. 2:00 1011 - 0,3
Fr, 17.05. 20:00 1010 + 1,2
Fr, 17.05. 14:00 1010 - 1,1
Fr, 17.05. 8:00 1011 + 0,2
Fr, 17.05. 2:00 1012 + 0,5
Ortszeit Luftdruck NN (hPa) Tendenz (hPa in 3 Std.)
So, 19.05. 0:30 1011 + 0,2
So, 19.05. 0:20 1011 keine Meldung
So, 19.05. 0:10 1011 keine Meldung
So, 19.05. 0:00 1011 + 0,2
Sa, 18.05. 23:50 1011 keine Meldung
Sa, 18.05. 23:40 1011 keine Meldung
Sa, 18.05. 23:30 1011 + 0,2
Sa, 18.05. 23:00 1011 + 0,2
Sa, 18.05. 22:30 1010 + 0,2
Sa, 18.05. 22:00 1010 + 0,1
Sa, 18.05. 21:30 1010 - 0,1
Ortszeit Schneehöhe (cm)
Sa, 18.05. 20:00 0
Sa, 18.05. 14:00 0
Sa, 18.05. 8:00 0
Sa, 18.05. 2:00 0
Fr, 17.05. 20:00 0
Fr, 17.05. 14:00 0
Fr, 17.05. 8:00 0
Fr, 17.05. 2:00 0
Ortszeit Schneehöhe (cm)
So, 19.05. 0:30 0
So, 19.05. 0:20 0
So, 19.05. 0:10 -
So, 19.05. 0:00 0
Sa, 18.05. 23:50 0
Sa, 18.05. 23:40 -
Sa, 18.05. 23:30 0
Sa, 18.05. 23:00 0
Sa, 18.05. 22:30 0
Sa, 18.05. 22:00 0
Sa, 18.05. 21:30 0
Link zu dieser Seite / Seite empfehlen

Das Wetter in ...